createdAt,value
2023-05-08T00:00:48.105Z,14.32
2023-05-08T00:01:48.068Z,14.31
2023-05-08T00:02:48.138Z,14.29
2023-05-08T00:03:48.244Z,14.34
2023-05-08T00:04:48.071Z,14.35
2023-05-08T00:05:48.059Z,14.32
2023-05-08T00:06:48.009Z,14.34
2023-05-08T00:07:48.028Z,14.27
2023-05-08T00:08:47.993Z,14.25
2023-05-08T00:09:47.986Z,14.24
2023-05-08T00:10:47.972Z,14.20
2023-05-08T00:11:47.968Z,14.19
2023-05-08T00:12:48.015Z,14.19
2023-05-08T00:13:47.965Z,14.14
2023-05-08T00:14:47.927Z,14.13
2023-05-08T00:15:47.918Z,14.12
2023-05-08T00:16:47.948Z,14.14
2023-05-08T00:17:47.966Z,14.14
2023-05-08T00:18:47.879Z,14.14
2023-05-08T00:19:47.872Z,14.12
2023-05-08T00:20:47.879Z,14.14
2023-05-08T00:21:47.850Z,14.12
2023-05-08T00:22:47.836Z,14.09
2023-05-08T00:23:47.847Z,14.07
2023-05-08T00:24:47.816Z,14.09
2023-05-08T00:25:47.809Z,14.06
2023-05-08T00:26:47.798Z,14.02
2023-05-08T00:27:47.805Z,13.99
2023-05-08T00:28:47.772Z,13.99
2023-05-08T00:29:47.758Z,13.98
2023-05-08T00:30:47.754Z,14.01
2023-05-08T00:31:47.769Z,14.01
2023-05-08T00:32:47.848Z,14.01
2023-05-08T00:33:47.740Z,14.04
2023-05-08T00:34:47.700Z,14.02
2023-05-08T00:35:47.691Z,14.01
2023-05-08T00:36:47.683Z,13.98
2023-05-08T00:37:47.667Z,13.98
2023-05-08T00:38:47.657Z,13.98
2023-05-08T00:39:47.672Z,13.94
2023-05-08T00:40:47.630Z,13.95
2023-05-08T00:41:47.673Z,13.94
2023-05-08T00:42:47.615Z,13.94
2023-05-08T00:43:47.627Z,13.95
2023-05-08T00:44:47.588Z,13.92
2023-05-08T00:45:47.677Z,13.91
2023-05-08T00:46:47.602Z,13.89
2023-05-08T00:47:47.649Z,13.87
2023-05-08T00:48:47.552Z,13.88
2023-05-08T00:49:47.538Z,13.87
2023-05-08T00:50:47.523Z,13.83
2023-05-08T00:51:47.512Z,13.81
2023-05-08T00:52:47.538Z,13.81
2023-05-08T00:53:47.491Z,13.77
2023-05-08T00:54:47.482Z,13.79
2023-05-08T00:55:47.477Z,13.77
2023-05-08T00:56:47.462Z,13.76
2023-05-08T00:57:47.452Z,13.76
2023-05-08T00:58:47.463Z,13.77
2023-05-08T00:59:47.425Z,13.76
2023-05-08T01:00:47.410Z,13.76
2023-05-08T01:01:47.432Z,13.73
2023-05-08T01:02:47.599Z,13.70
2023-05-08T01:03:54.172Z,13.70
2023-05-08T01:04:47.366Z,13.67
2023-05-08T01:05:47.364Z,13.71
2023-05-08T01:06:47.342Z,13.65
2023-05-08T01:07:47.353Z,13.67
2023-05-08T01:08:47.353Z,13.63
2023-05-08T01:09:47.320Z,13.61
2023-05-08T01:10:47.300Z,13.63
2023-05-08T01:11:47.297Z,13.59
2023-05-08T01:12:47.306Z,13.59
2023-05-08T01:13:47.295Z,13.59
2023-05-08T01:14:47.280Z,13.62
2023-05-08T01:15:47.296Z,13.56
2023-05-08T01:16:47.253Z,13.54
2023-05-08T01:17:47.336Z,13.49
2023-05-08T01:18:47.235Z,13.47
2023-05-08T01:19:47.235Z,13.46
2023-05-08T01:20:47.192Z,13.44
2023-05-08T01:21:47.184Z,13.43
2023-05-08T01:22:47.174Z,13.41
2023-05-08T01:23:47.166Z,13.40
2023-05-08T01:24:47.146Z,13.37
2023-05-08T01:25:47.160Z,13.33
2023-05-08T01:26:47.128Z,13.33
2023-05-08T01:27:47.119Z,13.32
2023-05-08T01:28:47.103Z,13.30
2023-05-08T01:29:47.089Z,13.32
2023-05-08T01:30:47.095Z,13.27
2023-05-08T01:31:47.101Z,13.24
2023-05-08T01:32:47.074Z,13.20
2023-05-08T01:33:47.129Z,13.17
2023-05-08T01:34:47.043Z,13.14
2023-05-08T01:35:47.036Z,13.11
2023-05-08T01:36:47.026Z,13.14
2023-05-08T01:37:47.022Z,13.14
2023-05-08T01:38:46.991Z,13.11
2023-05-08T01:39:47.046Z,13.07
2023-05-08T01:40:46.985Z,13.06
2023-05-08T01:41:46.976Z,13.03
2023-05-08T01:42:46.965Z,13.02
2023-05-08T01:43:46.945Z,13.02
2023-05-08T01:44:46.950Z,12.97
2023-05-08T01:45:46.934Z,12.96
2023-05-08T01:46:46.993Z,12.97
2023-05-08T01:47:46.916Z,12.89
2023-05-08T01:48:46.923Z,12.88
2023-05-08T01:49:46.878Z,12.87
2023-05-08T01:50:46.862Z,12.87
2023-05-08T01:51:46.882Z,12.85
2023-05-08T01:52:46.881Z,12.84
2023-05-08T01:53:46.846Z,12.81
2023-05-08T01:54:46.843Z,12.79
2023-05-08T01:55:46.811Z,12.78
2023-05-08T01:56:46.860Z,12.78
2023-05-08T01:57:46.808Z,12.75
2023-05-08T01:58:46.797Z,12.74
2023-05-08T01:59:46.779Z,12.71
2023-05-08T02:00:46.786Z,12.74
2023-05-08T02:01:46.750Z,12.66
2023-05-08T02:02:46.914Z,12.63
2023-05-08T02:03:46.885Z,12.62
2023-05-08T02:04:46.732Z,12.59
2023-05-08T02:05:46.702Z,12.56
2023-05-08T02:06:46.687Z,12.57
2023-05-08T02:07:46.677Z,12.54
2023-05-08T02:08:46.663Z,12.56
2023-05-08T02:09:46.656Z,12.51
2023-05-08T02:10:46.665Z,12.48
2023-05-08T02:11:46.644Z,12.46
2023-05-08T02:12:46.667Z,12.48
2023-05-08T02:13:46.613Z,12.45
2023-05-08T02:14:46.621Z,12.44
2023-05-08T02:15:46.601Z,12.45
2023-05-08T02:16:46.601Z,12.44
2023-05-08T02:17:46.574Z,12.41
2023-05-08T02:18:46.556Z,12.39
2023-05-08T02:19:46.565Z,12.38
2023-05-08T02:20:46.557Z,12.38
2023-05-08T02:21:46.587Z,12.38
2023-05-08T02:22:46.509Z,12.37
2023-05-08T02:23:46.518Z,12.37
2023-05-08T02:24:46.509Z,12.37
2023-05-08T02:25:46.472Z,12.37
2023-05-08T02:26:46.461Z,12.34
2023-05-08T02:27:46.489Z,12.33
2023-05-08T02:28:46.441Z,12.33
2023-05-08T02:29:46.432Z,12.33
2023-05-08T02:30:46.421Z,12.34
2023-05-08T02:31:46.413Z,12.34
2023-05-08T02:32:46.467Z,12.34
2023-05-08T02:33:46.404Z,12.31
2023-05-08T02:34:55.196Z,12.27
2023-05-08T02:35:46.379Z,12.26
2023-05-08T02:36:46.354Z,12.26
2023-05-08T02:37:46.348Z,12.21
2023-05-08T02:38:46.354Z,12.20
2023-05-08T02:39:46.347Z,12.15
2023-05-08T02:40:46.324Z,12.15
2023-05-08T02:41:46.305Z,12.13
2023-05-08T02:42:46.283Z,12.13
2023-05-08T02:43:46.305Z,12.19
2023-05-08T02:44:46.264Z,12.15
2023-05-08T02:45:46.290Z,12.16
2023-05-08T02:46:46.238Z,12.16
2023-05-08T02:47:46.260Z,12.20
2023-05-08T02:48:46.222Z,12.19
2023-05-08T02:49:46.232Z,12.21
2023-05-08T02:50:46.216Z,12.23
2023-05-08T02:51:46.187Z,12.23
2023-05-08T02:52:46.177Z,12.23
2023-05-08T02:53:46.201Z,12.21
2023-05-08T02:54:46.237Z,12.23
2023-05-08T02:55:46.145Z,12.21
2023-05-08T02:56:46.137Z,12.19
2023-05-08T02:57:46.145Z,12.15
2023-05-08T02:58:46.165Z,12.13
2023-05-08T02:59:46.129Z,12.11
2023-05-08T03:00:46.091Z,12.11
2023-05-08T03:01:46.097Z,12.11
2023-05-08T03:02:46.116Z,12.12
2023-05-08T03:03:46.157Z,12.11
2023-05-08T03:04:46.048Z,12.09
2023-05-08T03:05:46.056Z,12.08
2023-05-08T03:06:46.023Z,12.09
2023-05-08T03:07:46.004Z,12.09
2023-05-08T03:08:45.989Z,12.12
2023-05-08T03:09:45.985Z,12.13
2023-05-08T03:10:45.971Z,12.12
2023-05-08T03:11:45.993Z,12.11
2023-05-08T03:12:45.998Z,12.08
2023-05-08T03:13:45.955Z,12.08
2023-05-08T03:14:45.931Z,12.06
2023-05-08T03:15:45.971Z,12.05
2023-05-08T03:16:45.930Z,12.04
2023-05-08T03:17:45.938Z,12.02
2023-05-08T03:18:45.891Z,12.01
2023-05-08T03:19:45.873Z,11.97
2023-05-08T03:20:45.867Z,11.96
2023-05-08T03:21:45.841Z,11.90
2023-05-08T03:22:45.849Z,11.96
2023-05-08T03:23:45.852Z,11.90
2023-05-08T03:24:45.820Z,11.89
2023-05-08T03:25:45.810Z,11.87
2023-05-08T03:26:45.836Z,11.87
2023-05-08T03:27:45.782Z,11.86
2023-05-08T03:28:45.802Z,11.85
2023-05-08T03:29:45.764Z,11.86
2023-05-08T03:30:45.748Z,11.87
2023-05-08T03:31:45.796Z,11.89
2023-05-08T03:32:45.744Z,11.86
2023-05-08T03:33:45.737Z,11.83
2023-05-08T03:34:45.725Z,11.85
2023-05-08T03:35:45.690Z,11.82
2023-05-08T03:36:45.686Z,11.80
2023-05-08T03:37:52.573Z,11.82
2023-05-08T03:38:45.686Z,11.78
2023-05-08T03:39:45.650Z,11.77
2023-05-08T03:40:45.636Z,11.78
2023-05-08T03:41:45.626Z,11.78
2023-05-08T03:42:45.616Z,11.78
2023-05-08T03:43:45.603Z,11.80
2023-05-08T03:44:45.624Z,11.85
2023-05-08T03:45:45.585Z,11.87
2023-05-08T03:46:45.635Z,11.89
2023-05-08T03:47:45.563Z,11.89
2023-05-08T03:48:45.550Z,11.89
2023-05-08T03:49:45.535Z,11.86
2023-05-08T03:50:45.549Z,11.87
2023-05-08T03:51:45.518Z,11.89
2023-05-08T03:52:45.505Z,11.93
2023-05-08T03:53:45.500Z,11.96
2023-05-08T03:54:45.489Z,11.97
2023-05-08T03:55:45.504Z,11.99
2023-05-08T03:56:45.466Z,12.01
2023-05-08T03:57:45.460Z,12.05
2023-05-08T03:58:45.449Z,12.05
2023-05-08T03:59:45.453Z,12.05
2023-05-08T04:00:45.428Z,12.06
2023-05-08T04:01:45.454Z,12.06
2023-05-08T04:02:45.435Z,12.09
2023-05-08T04:03:45.473Z,12.09
2023-05-08T04:04:45.407Z,12.11
2023-05-08T04:05:45.372Z,12.12
2023-05-08T04:06:49.977Z,12.11
2023-05-08T04:07:45.368Z,12.11
2023-05-08T04:08:45.345Z,12.12
2023-05-08T04:09:45.327Z,12.12
2023-05-08T04:10:45.342Z,12.13
2023-05-08T04:11:45.311Z,12.16
2023-05-08T04:12:45.365Z,12.20
2023-05-08T04:13:45.277Z,12.19
2023-05-08T04:14:45.290Z,12.16
2023-05-08T04:15:45.266Z,12.19
2023-05-08T04:16:45.320Z,12.20
2023-05-08T04:17:45.274Z,12.21
2023-05-08T04:18:45.259Z,12.21
2023-05-08T04:19:45.222Z,12.20
2023-05-08T04:20:46.220Z,12.21
2023-05-08T04:21:45.204Z,12.24
2023-05-08T04:22:45.189Z,12.23
2023-05-08T04:23:45.193Z,12.26
2023-05-08T04:24:45.170Z,12.27
2023-05-08T04:25:45.153Z,12.26
2023-05-08T04:26:45.149Z,12.33
2023-05-08T04:27:45.175Z,12.37
2023-05-08T04:28:45.128Z,12.37
2023-05-08T04:29:45.122Z,12.37
2023-05-08T04:30:45.098Z,12.34
2023-05-08T04:31:45.115Z,12.33
2023-05-08T04:32:46.745Z,12.34
2023-05-08T04:33:45.097Z,12.34
2023-05-08T04:34:45.056Z,12.33
2023-05-08T04:35:45.049Z,12.33
2023-05-08T04:36:45.036Z,12.33
2023-05-08T04:37:45.040Z,12.37
2023-05-08T04:38:45.053Z,12.38
2023-05-08T04:39:44.997Z,12.39
2023-05-08T04:40:45.001Z,12.42
2023-05-08T04:41:45.068Z,12.44
2023-05-08T04:42:44.970Z,12.44
2023-05-08T04:43:44.956Z,12.46
2023-05-08T04:44:44.970Z,12.46
2023-05-08T04:45:44.939Z,12.48
2023-05-08T04:46:44.924Z,12.51
2023-05-08T04:47:44.987Z,12.49
2023-05-08T04:48:44.926Z,12.49
2023-05-08T04:49:44.897Z,12.56
2023-05-08T04:50:44.904Z,12.59
2023-05-08T04:51:44.873Z,12.59
2023-05-08T04:52:44.857Z,12.59
2023-05-08T04:53:44.853Z,12.62
2023-05-08T04:54:44.841Z,12.64
2023-05-08T04:55:44.853Z,12.69
2023-05-08T04:56:44.849Z,12.70
2023-05-08T04:57:44.803Z,12.74
2023-05-08T04:58:44.794Z,12.78
2023-05-08T04:59:44.784Z,12.82
2023-05-08T05:00:44.766Z,12.81
2023-05-08T05:01:44.838Z,12.82
2023-05-08T05:02:44.837Z,12.85
2023-05-08T05:03:44.807Z,12.88
2023-05-08T05:04:44.743Z,12.95
2023-05-08T05:05:44.718Z,12.95
2023-05-08T05:06:44.710Z,12.99
2023-05-08T05:07:44.710Z,13.02
2023-05-08T05:08:44.684Z,13.06
2023-05-08T05:09:44.694Z,13.07
2023-05-08T05:10:44.654Z,13.09
2023-05-08T05:11:44.647Z,13.11
2023-05-08T05:12:44.685Z,13.17
2023-05-08T05:13:44.622Z,13.21
2023-05-08T05:14:44.615Z,13.21
2023-05-08T05:15:44.635Z,13.22
2023-05-08T05:16:44.695Z,13.27
2023-05-08T05:17:44.647Z,13.32
2023-05-08T05:18:44.592Z,13.37
2023-05-08T05:19:44.561Z,13.43
2023-05-08T05:20:44.554Z,13.49
2023-05-08T05:21:44.536Z,13.52
2023-05-08T05:22:44.546Z,13.56
2023-05-08T05:23:44.511Z,13.58
2023-05-08T05:24:44.539Z,13.63
2023-05-08T05:25:44.489Z,13.69
2023-05-08T05:26:44.484Z,13.71
2023-05-08T05:27:44.470Z,13.76
2023-05-08T05:28:44.496Z,13.79
2023-05-08T05:29:44.443Z,13.84
2023-05-08T05:30:44.438Z,13.87
2023-05-08T05:31:44.591Z,13.91
2023-05-08T05:32:44.421Z,13.94
2023-05-08T05:33:44.409Z,13.96
2023-05-08T05:34:44.429Z,14.02
2023-05-08T05:35:44.377Z,14.06
2023-05-08T05:36:44.401Z,14.10
2023-05-08T05:37:44.352Z,14.13
2023-05-08T05:38:44.349Z,14.17
2023-05-08T05:39:44.338Z,14.20
2023-05-08T05:40:44.335Z,14.24
2023-05-08T05:41:44.324Z,14.27
2023-05-08T05:42:44.294Z,14.27
2023-05-08T05:43:44.286Z,14.29
2023-05-08T05:44:44.273Z,14.29
2023-05-08T05:45:44.287Z,14.31
2023-05-08T05:46:44.702Z,14.34
2023-05-08T05:47:44.293Z,14.35
2023-05-08T05:48:44.230Z,14.38
2023-05-08T05:49:44.221Z,14.35
2023-05-08T05:50:44.260Z,14.37
2023-05-08T05:51:44.195Z,14.39
2023-05-08T05:52:44.187Z,14.42
2023-05-08T05:53:44.183Z,14.43
2023-05-08T05:54:44.172Z,14.43
2023-05-08T05:55:44.152Z,14.42
2023-05-08T05:56:44.166Z,14.44
2023-05-08T05:57:44.127Z,14.47
2023-05-08T05:58:44.124Z,14.50
2023-05-08T05:59:44.112Z,14.53
2023-05-08T06:00:44.101Z,14.56
2023-05-08T06:01:44.157Z,14.56
2023-05-08T06:02:44.308Z,14.61
2023-05-08T06:03:44.234Z,14.67
2023-05-08T06:04:44.053Z,14.69
2023-05-08T06:05:44.054Z,14.69
2023-05-08T06:06:44.031Z,14.69
2023-05-08T06:07:44.042Z,14.72
2023-05-08T06:08:44.017Z,14.74
2023-05-08T06:09:43.998Z,14.78
2023-05-08T06:10:43.990Z,14.81
2023-05-08T06:11:43.986Z,14.87
2023-05-08T06:12:44.013Z,14.91
2023-05-08T06:13:44.020Z,14.94
2023-05-08T06:14:43.992Z,14.99
2023-05-08T06:15:43.935Z,15.03
2023-05-08T06:16:43.946Z,15.08
2023-05-08T06:17:43.942Z,15.09
2023-05-08T06:18:43.922Z,15.17
2023-05-08T06:19:43.878Z,15.17
2023-05-08T06:20:43.893Z,15.21
2023-05-08T06:21:43.910Z,15.24
2023-05-08T06:22:43.865Z,15.27
2023-05-08T06:23:43.844Z,-40.00
2023-05-08T06:24:43.838Z,-40.00
2023-05-08T06:25:43.814Z,15.46
2023-05-08T06:26:43.832Z,15.52
2023-05-08T06:27:43.802Z,15.52
2023-05-08T06:28:43.790Z,15.51
2023-05-08T06:29:43.777Z,15.54
2023-05-08T06:30:43.807Z,15.57
2023-05-08T06:31:43.776Z,15.57
2023-05-08T06:32:43.770Z,15.60
2023-05-08T06:33:43.731Z,15.60
2023-05-08T06:34:43.721Z,15.64
2023-05-08T06:35:43.712Z,15.66
2023-05-08T06:36:43.716Z,15.72
2023-05-08T06:37:43.704Z,15.76
2023-05-08T06:38:43.676Z,15.81
2023-05-08T06:39:43.669Z,15.86
2023-05-08T06:40:43.656Z,15.89
2023-05-08T06:41:43.651Z,15.93
2023-05-08T06:42:43.680Z,15.94
2023-05-08T06:43:43.616Z,15.97
2023-05-08T06:44:43.608Z,16.00
2023-05-08T06:45:43.607Z,16.03
2023-05-08T06:46:43.662Z,16.06
2023-05-08T06:47:43.639Z,16.11
2023-05-08T06:48:43.584Z,16.16
2023-05-08T06:49:43.550Z,16.20
2023-05-08T06:50:43.549Z,16.27
2023-05-08T06:51:43.530Z,16.33
2023-05-08T06:52:43.527Z,16.34
2023-05-08T06:53:43.530Z,16.41
2023-05-08T06:54:43.513Z,16.42
2023-05-08T06:55:43.491Z,16.49
2023-05-08T06:56:43.486Z,16.55
2023-05-08T06:57:43.462Z,16.56
2023-05-08T06:58:46.335Z,16.60
2023-05-08T06:59:43.448Z,16.67
2023-05-08T07:00:43.446Z,16.73
2023-05-08T07:01:43.508Z,16.75
2023-05-08T07:02:43.428Z,16.73
2023-05-08T07:03:43.396Z,16.65
2023-05-08T07:04:49.465Z,16.62
2023-05-08T07:05:43.413Z,16.62
2023-05-08T07:06:43.370Z,16.59
2023-05-08T07:07:43.355Z,16.60
2023-05-08T07:08:43.343Z,16.62
2023-05-08T07:09:43.333Z,16.63
2023-05-08T07:10:43.321Z,16.70
2023-05-08T07:11:43.333Z,16.74
2023-05-08T07:12:43.343Z,16.80
2023-05-08T07:13:43.301Z,16.83
2023-05-08T07:14:43.285Z,16.92
2023-05-08T07:15:43.380Z,16.96
2023-05-08T07:16:43.515Z,16.98
2023-05-08T07:17:43.290Z,16.99
2023-05-08T07:18:43.230Z,17.03
2023-05-08T07:19:43.216Z,17.07
2023-05-08T07:20:43.252Z,17.14
2023-05-08T07:21:43.217Z,17.17
2023-05-08T07:22:43.189Z,17.18
2023-05-08T07:23:43.181Z,17.26
2023-05-08T07:24:43.164Z,17.30
2023-05-08T07:25:43.165Z,17.35
2023-05-08T07:26:43.167Z,17.28
2023-05-08T07:27:43.145Z,17.18
2023-05-08T07:28:43.117Z,17.22
2023-05-08T07:29:43.108Z,17.10
2023-05-08T07:30:43.109Z,17.06
2023-05-08T07:31:43.122Z,17.04
2023-05-08T07:32:43.138Z,17.07
2023-05-08T07:33:43.070Z,17.10
2023-05-08T07:34:43.061Z,17.08
2023-05-08T07:35:43.056Z,17.07
2023-05-08T07:36:43.035Z,17.04
2023-05-08T07:37:43.037Z,17.13
2023-05-08T07:38:43.012Z,17.13
2023-05-08T07:39:42.994Z,17.20
2023-05-08T07:40:42.998Z,17.30
2023-05-08T07:41:43.055Z,17.36
2023-05-08T07:42:42.974Z,17.41
2023-05-08T07:43:42.948Z,17.50
2023-05-08T07:44:53.817Z,17.57
2023-05-08T07:45:42.928Z,17.64
2023-05-08T07:46:42.944Z,17.70
2023-05-08T07:47:42.938Z,17.76
2023-05-08T07:48:42.890Z,17.88
2023-05-08T07:49:42.880Z,17.99
2023-05-08T07:50:42.891Z,18.03
2023-05-08T07:51:42.859Z,18.09
2023-05-08T07:52:42.848Z,18.07
2023-05-08T07:53:42.861Z,18.09
2023-05-08T07:54:42.826Z,18.10
2023-05-08T07:55:42.829Z,18.10
2023-05-08T07:56:42.816Z,18.17
2023-05-08T07:57:42.810Z,18.21
2023-05-08T07:58:42.843Z,18.25
2023-05-08T07:59:42.789Z,18.28
2023-05-08T08:00:42.786Z,18.31
2023-05-08T08:01:42.761Z,18.39
2023-05-08T08:02:42.969Z,18.50
2023-05-08T08:03:42.747Z,18.54
2023-05-08T08:04:42.713Z,18.54
2023-05-08T08:05:42.700Z,18.64
2023-05-08T08:06:42.690Z,18.68
2023-05-08T08:07:42.684Z,18.74
2023-05-08T08:08:42.698Z,18.82
2023-05-08T08:09:42.668Z,18.86
2023-05-08T08:10:42.647Z,18.90
2023-05-08T08:11:42.633Z,18.94
2023-05-08T08:12:42.655Z,18.98
2023-05-08T08:13:42.646Z,19.05
2023-05-08T08:14:42.604Z,19.15
2023-05-08T08:15:42.665Z,19.18
2023-05-08T08:16:42.659Z,19.29
2023-05-08T08:17:42.628Z,19.31
2023-05-08T08:18:42.561Z,19.31
2023-05-08T08:19:42.568Z,19.39
2023-05-08T08:20:42.546Z,19.51
2023-05-08T08:21:42.544Z,19.55
2023-05-08T08:22:42.514Z,19.65
2023-05-08T08:23:42.504Z,19.73
2023-05-08T08:24:42.490Z,19.75
2023-05-08T08:25:42.482Z,19.78
2023-05-08T08:26:42.499Z,19.87
2023-05-08T08:27:42.468Z,19.83
2023-05-08T08:28:42.463Z,19.80
2023-05-08T08:29:42.452Z,19.88
2023-05-08T08:30:42.478Z,19.90
2023-05-08T08:31:42.605Z,19.95
2023-05-08T08:32:42.434Z,19.97
2023-05-08T08:33:42.405Z,19.97
2023-05-08T08:34:42.373Z,19.93
2023-05-08T08:35:42.370Z,19.93
2023-05-08T08:36:42.381Z,19.97
2023-05-08T08:37:42.352Z,20.05
2023-05-08T08:38:42.335Z,20.10
2023-05-08T08:39:42.331Z,20.21
2023-05-08T08:40:42.317Z,20.30
2023-05-08T08:41:42.332Z,20.35
2023-05-08T08:42:42.295Z,20.38
2023-05-08T08:43:42.295Z,20.47
2023-05-08T08:44:42.272Z,20.50
2023-05-08T08:45:42.271Z,20.54
2023-05-08T08:46:42.313Z,20.59
2023-05-08T08:47:42.253Z,20.66
2023-05-08T08:48:42.232Z,20.72
2023-05-08T08:49:42.215Z,20.77
2023-05-08T08:50:42.208Z,20.80
2023-05-08T08:51:42.194Z,20.77
2023-05-08T08:52:42.212Z,20.77
2023-05-08T08:53:42.173Z,20.79
2023-05-08T08:54:42.199Z,20.87
2023-05-08T08:55:42.149Z,20.95
2023-05-08T08:56:42.147Z,21.02
2023-05-08T08:57:42.130Z,21.08
2023-05-08T08:58:42.141Z,21.05
2023-05-08T08:59:42.117Z,20.87
2023-05-08T09:00:42.090Z,20.90
2023-05-08T09:01:42.100Z,20.93
2023-05-08T09:02:42.157Z,20.99
2023-05-08T09:03:42.196Z,21.06
2023-05-08T09:04:42.077Z,21.14
2023-05-08T09:05:42.085Z,21.17
2023-05-08T09:06:42.026Z,21.16
2023-05-08T09:07:42.010Z,21.17
2023-05-08T09:08:42.029Z,21.19
2023-05-08T09:09:42.006Z,21.11
2023-05-08T09:10:41.981Z,21.11
2023-05-08T09:11:41.976Z,21.14
2023-05-08T09:12:42.019Z,21.16
2023-05-08T09:13:41.994Z,21.08
2023-05-08T09:14:41.962Z,20.83
2023-05-08T09:15:41.938Z,20.50
2023-05-08T09:16:41.982Z,20.66
2023-05-08T09:17:41.951Z,20.81
2023-05-08T09:18:41.911Z,20.95
2023-05-08T09:19:41.909Z,21.01
2023-05-08T09:20:41.864Z,21.14
2023-05-08T09:21:42.025Z,21.30
2023-05-08T09:22:41.857Z,21.38
2023-05-08T09:23:41.843Z,21.51
2023-05-08T09:24:41.849Z,21.63
2023-05-08T09:25:41.819Z,21.83
2023-05-08T09:26:41.809Z,21.97
2023-05-08T09:27:41.816Z,22.17
2023-05-08T09:28:41.808Z,22.27
2023-05-08T09:29:41.770Z,22.34
2023-05-08T09:30:41.778Z,22.43
2023-05-08T09:31:41.821Z,22.54
2023-05-08T09:32:41.793Z,22.59
2023-05-08T09:33:41.726Z,22.57
2023-05-08T09:34:41.755Z,22.64
2023-05-08T09:35:41.725Z,22.71
2023-05-08T09:36:41.690Z,22.56
2023-05-08T09:37:41.741Z,22.46
2023-05-08T09:38:41.668Z,22.44
2023-05-08T09:39:41.686Z,22.50
2023-05-08T09:40:41.659Z,22.57
2023-05-08T09:41:41.654Z,22.64
2023-05-08T09:42:41.624Z,22.77
2023-05-08T09:43:41.617Z,22.89
2023-05-08T09:44:41.616Z,22.94
2023-05-08T09:45:41.668Z,23.09
2023-05-08T09:46:41.577Z,23.12
2023-05-08T09:47:41.594Z,23.24
2023-05-08T09:48:41.680Z,23.43
2023-05-08T09:49:41.639Z,23.49
2023-05-08T09:50:43.542Z,23.55
2023-05-08T09:51:41.535Z,23.67
2023-05-08T09:52:41.518Z,23.80
2023-05-08T09:53:41.509Z,23.97
2023-05-08T09:54:41.491Z,23.89
2023-05-08T09:55:41.511Z,23.86
2023-05-08T09:56:41.485Z,23.92
2023-05-08T09:57:41.465Z,23.79
2023-05-08T09:58:41.455Z,23.67
2023-05-08T09:59:41.444Z,23.67
2023-05-08T10:00:41.430Z,23.70
2023-05-08T10:01:41.475Z,23.75
2023-05-08T10:02:41.440Z,23.80
2023-05-08T10:03:41.445Z,23.89
2023-05-08T10:04:41.417Z,23.95
2023-05-08T10:05:41.390Z,24.04
2023-05-08T10:06:41.371Z,24.10
2023-05-08T10:07:41.378Z,24.19
2023-05-08T10:08:41.348Z,24.34
2023-05-08T10:09:50.409Z,24.49
2023-05-08T10:10:41.346Z,24.42
2023-05-08T10:11:41.318Z,24.38
2023-05-08T10:12:41.316Z,24.37
2023-05-08T10:13:41.286Z,24.42
2023-05-08T10:14:42.131Z,24.45
2023-05-08T10:15:41.270Z,24.50
2023-05-08T10:16:41.344Z,24.53
2023-05-08T10:17:41.321Z,24.41
2023-05-08T10:18:41.232Z,24.34
2023-05-08T10:19:41.224Z,23.95
2023-05-08T10:20:41.224Z,23.98
2023-05-08T10:21:41.219Z,23.98
2023-05-08T10:22:41.238Z,23.98
2023-05-08T10:23:41.230Z,24.00
2023-05-08T10:24:41.177Z,23.86
2023-05-08T10:25:41.160Z,23.76
2023-05-08T10:26:47.760Z,23.62
2023-05-08T10:27:41.150Z,23.50
2023-05-08T10:28:41.125Z,23.43
2023-05-08T10:29:41.118Z,23.40
2023-05-08T10:30:41.133Z,23.42
2023-05-08T10:31:41.222Z,23.39
2023-05-08T10:32:41.135Z,23.39
2023-05-08T10:33:41.102Z,23.43
2023-05-08T10:34:41.060Z,23.22
2023-05-08T10:35:41.058Z,22.99
2023-05-08T10:36:41.034Z,23.01
2023-05-08T10:37:41.051Z,23.01
2023-05-08T10:38:41.020Z,22.97
2023-05-08T10:39:41.034Z,23.09
2023-05-08T10:40:41.016Z,23.17
2023-05-08T10:41:40.999Z,23.26
2023-05-08T10:42:40.973Z,23.32
2023-05-08T10:43:40.984Z,23.34
2023-05-08T10:44:40.954Z,23.39
2023-05-08T10:45:40.969Z,23.45
2023-05-08T10:46:40.952Z,23.52
2023-05-08T10:47:44.932Z,23.58
2023-05-08T10:48:40.923Z,23.62
2023-05-08T10:49:40.898Z,23.67
2023-05-08T10:50:40.900Z,23.70
2023-05-08T10:51:40.911Z,23.72
2023-05-08T10:52:40.865Z,23.80
2023-05-08T10:53:40.884Z,23.83
2023-05-08T10:54:40.860Z,23.92
2023-05-08T10:55:40.832Z,24.00
2023-05-08T10:56:40.834Z,24.05
2023-05-08T10:57:40.814Z,24.16
2023-05-08T10:58:40.798Z,24.20
2023-05-08T10:59:40.831Z,24.13
2023-05-08T11:00:40.786Z,24.14
2023-05-08T11:01:40.800Z,24.17
2023-05-08T11:02:40.878Z,24.17
2023-05-08T11:03:40.848Z,24.23
2023-05-08T11:04:40.782Z,24.29
2023-05-08T11:05:40.770Z,24.39
2023-05-08T11:06:40.709Z,24.45
2023-05-08T11:07:40.692Z,24.53
2023-05-08T11:08:40.688Z,24.60
2023-05-08T11:09:40.706Z,24.53
2023-05-08T11:10:40.685Z,24.57
2023-05-08T11:11:40.651Z,24.64
2023-05-08T11:12:40.720Z,24.73
2023-05-08T11:13:40.631Z,24.83
2023-05-08T11:14:40.619Z,24.97
2023-05-08T11:15:40.633Z,25.13
2023-05-08T11:16:40.782Z,25.34
2023-05-08T11:17:40.645Z,25.56
2023-05-08T11:18:49.130Z,25.75
2023-05-08T11:19:40.566Z,25.90
2023-05-08T11:20:40.610Z,25.83
2023-05-08T11:21:40.542Z,25.89
2023-05-08T11:22:40.536Z,26.02
2023-05-08T11:23:40.521Z,26.20
2023-05-08T11:24:40.518Z,26.24
2023-05-08T11:25:40.519Z,26.32
2023-05-08T11:26:40.650Z,26.42
2023-05-08T11:27:40.500Z,26.37
2023-05-08T11:28:40.471Z,-40.00
2023-05-08T11:29:40.459Z,26.40
2023-05-08T11:30:40.477Z,27.19
2023-05-08T11:31:40.507Z,28.03
2023-05-08T11:32:40.464Z,28.46
2023-05-08T11:33:40.411Z,28.40
2023-05-08T11:34:40.400Z,28.10
2023-05-08T11:35:40.411Z,27.91
2023-05-08T11:36:40.376Z,-39.76
2023-05-08T11:37:40.369Z,27.64
2023-05-08T11:38:40.363Z,27.46
2023-05-08T11:39:40.347Z,27.16
2023-05-08T11:40:40.365Z,26.95
2023-05-08T11:41:40.333Z,26.81
2023-05-08T11:42:40.365Z,26.73
2023-05-08T11:43:40.304Z,26.59
2023-05-08T11:44:40.293Z,26.52
2023-05-08T11:45:40.278Z,26.17
2023-05-08T11:46:40.382Z,25.67
2023-05-08T11:47:40.296Z,25.38
2023-05-08T11:48:40.262Z,25.16
2023-05-08T11:49:40.235Z,24.98
2023-05-08T11:50:40.230Z,24.95
2023-05-08T11:51:40.239Z,24.95
2023-05-08T11:52:40.235Z,25.06
2023-05-08T11:53:40.200Z,25.10
2023-05-08T11:54:40.189Z,25.17
2023-05-08T11:55:40.172Z,25.30
2023-05-08T11:56:40.168Z,25.13
2023-05-08T11:57:40.180Z,25.20
2023-05-08T11:58:40.137Z,25.10
2023-05-08T11:59:40.121Z,25.20
2023-05-08T12:00:40.155Z,25.27
2023-05-08T12:01:40.134Z,25.28
2023-05-08T12:02:40.182Z,25.35
2023-05-08T12:03:40.218Z,25.42
2023-05-08T12:04:40.141Z,25.53
2023-05-08T12:05:40.066Z,25.61
2023-05-08T12:06:40.055Z,25.62
2023-05-08T12:07:40.037Z,25.71
2023-05-08T12:08:40.062Z,25.71
2023-05-08T12:09:40.038Z,25.68
2023-05-08T12:10:39.998Z,25.72
2023-05-08T12:11:39.993Z,25.75
2023-05-08T12:12:40.003Z,25.84
2023-05-08T12:13:39.968Z,25.86
2023-05-08T12:14:39.985Z,26.02
2023-05-08T12:15:39.942Z,26.01
2023-05-08T12:16:39.962Z,26.01
2023-05-08T12:17:39.991Z,26.35
2023-05-08T12:18:40.115Z,26.54
2023-05-08T12:19:39.901Z,26.74
2023-05-08T12:20:39.914Z,26.86
2023-05-08T12:21:39.882Z,26.87
2023-05-08T12:22:39.866Z,26.72
2023-05-08T12:23:39.849Z,26.57
2023-05-08T12:24:39.867Z,26.36
2023-05-08T12:25:39.840Z,26.24
2023-05-08T12:26:39.821Z,26.24
2023-05-08T12:27:39.815Z,26.12
2023-05-08T12:28:39.799Z,25.91
2023-05-08T12:29:39.795Z,25.79
2023-05-08T12:30:39.798Z,25.86
2023-05-08T12:31:39.811Z,25.87
2023-05-08T12:32:39.817Z,25.99
2023-05-08T12:33:39.745Z,26.20
2023-05-08T12:34:39.741Z,26.35
2023-05-08T12:35:39.748Z,26.44
2023-05-08T12:36:39.727Z,26.44
2023-05-08T12:37:39.712Z,26.18
2023-05-08T12:38:39.683Z,25.87
2023-05-08T12:39:39.676Z,25.99
2023-05-08T12:40:39.665Z,26.20
2023-05-08T12:41:39.676Z,26.40
2023-05-08T12:42:39.647Z,26.47
2023-05-08T12:43:39.646Z,26.62
2023-05-08T12:44:39.629Z,26.69
2023-05-08T12:45:39.748Z,26.68
2023-05-08T12:46:39.772Z,26.59
2023-05-08T12:47:39.655Z,26.58
2023-05-08T12:48:39.579Z,26.69
2023-05-08T12:49:39.571Z,26.80
2023-05-08T12:50:39.566Z,26.91
2023-05-08T12:51:39.591Z,26.83
2023-05-08T12:52:39.538Z,26.94